sensor_id;sensor_type;location;lat;lon;timestamp;temperature;humidity
66019;HTU21D;52787;51.084;5.816;2022-11-04T00:01:49;12.51;84.55
66019;HTU21D;52787;51.084;5.816;2022-11-04T00:04:18;12.48;84.44
66019;HTU21D;52787;51.084;5.816;2022-11-04T00:06:46;12.47;84.28
66019;HTU21D;52787;51.084;5.816;2022-11-04T00:09:19;12.46;84.38
66019;HTU21D;52787;51.084;5.816;2022-11-04T00:11:46;12.47;84.42
66019;HTU21D;52787;51.084;5.816;2022-11-04T00:14:32;12.44;84.22
66019;HTU21D;52787;51.084;5.816;2022-11-04T00:16:59;12.41;84.17
66019;HTU21D;52787;51.084;5.816;2022-11-04T00:19:50;12.36;84.18
66019;HTU21D;52787;51.084;5.816;2022-11-04T00:22:37;12.31;84.41
66019;HTU21D;52787;51.084;5.816;2022-11-04T00:25:22;12.25;84.39
66019;HTU21D;52787;51.084;5.816;2022-11-04T00:31:02;12.22;84.45
66019;HTU21D;52787;51.084;5.816;2022-11-04T00:33:49;12.22;84.33
66019;HTU21D;52787;51.084;5.816;2022-11-04T00:36:16;12.21;84.19
66019;HTU21D;52787;51.084;5.816;2022-11-04T00:38:42;12.18;84.17
66019;HTU21D;52787;51.084;5.816;2022-11-04T00:41:08;12.15;84.29
66019;HTU21D;52787;51.084;5.816;2022-11-04T00:44:04;12.14;84.48
66019;HTU21D;52787;51.084;5.816;2022-11-04T00:46:32;12.12;84.41
66019;HTU21D;52787;51.084;5.816;2022-11-04T00:48:58;12.07;84.42
66019;HTU21D;52787;51.084;5.816;2022-11-04T00:51:25;12.04;84.27
66019;HTU21D;52787;51.084;5.816;2022-11-04T00:53:51;12.00;84.41
66019;HTU21D;52787;51.084;5.816;2022-11-04T00:56:17;12.00;84.29
66019;HTU21D;52787;51.084;5.816;2022-11-04T00:58:42;11.98;84.40
66019;HTU21D;52787;51.084;5.816;2022-11-04T01:01:11;11.98;84.13
66019;HTU21D;52787;51.084;5.816;2022-11-04T01:03:42;11.96;84.00
66019;HTU21D;52787;51.084;5.816;2022-11-04T01:06:09;11.94;84.16
66019;HTU21D;52787;51.084;5.816;2022-11-04T01:08:35;11.91;84.06
66019;HTU21D;52787;51.084;5.816;2022-11-04T01:11:05;11.89;84.08
66019;HTU21D;52787;51.084;5.816;2022-11-04T01:13:33;11.84;84.19
66019;HTU21D;52787;51.084;5.816;2022-11-04T01:16:01;11.83;84.13
66019;HTU21D;52787;51.084;5.816;2022-11-04T01:18:29;11.77;84.28
66019;HTU21D;52787;51.084;5.816;2022-11-04T01:21:00;11.75;84.35
66019;HTU21D;52787;51.084;5.816;2022-11-04T01:23:27;11.74;84.39
66019;HTU21D;52787;51.084;5.816;2022-11-04T01:25:53;11.73;84.32
66019;HTU21D;52787;51.084;5.816;2022-11-04T01:28:19;11.72;84.24
66019;HTU21D;52787;51.084;5.816;2022-11-04T01:30:45;11.72;84.15
66019;HTU21D;52787;51.084;5.816;2022-11-04T01:33:10;11.70;84.04
66019;HTU21D;52787;51.084;5.816;2022-11-04T01:35:36;11.69;83.97
66019;HTU21D;52787;51.084;5.816;2022-11-04T01:38:02;11.69;83.98
66019;HTU21D;52787;51.084;5.816;2022-11-04T01:40:28;11.70;83.84
66019;HTU21D;52787;51.084;5.816;2022-11-04T01:42:54;11.66;83.84
66019;HTU21D;52787;51.084;5.816;2022-11-04T01:45:21;11.61;83.81
66019;HTU21D;52787;51.084;5.816;2022-11-04T01:48:05;11.55;83.87
66019;HTU21D;52787;51.084;5.816;2022-11-04T01:50:36;11.53;83.94
66019;HTU21D;52787;51.084;5.816;2022-11-04T01:53:05;11.51;84.09
66019;HTU21D;52787;51.084;5.816;2022-11-04T01:55:38;11.48;84.13
66019;HTU21D;52787;51.084;5.816;2022-11-04T01:58:10;11.47;84.26
66019;HTU21D;52787;51.084;5.816;2022-11-04T02:00:40;11.47;84.23
66019;HTU21D;52787;51.084;5.816;2022-11-04T02:03:11;11.49;84.14
66019;HTU21D;52787;51.084;5.816;2022-11-04T02:05:46;11.51;83.82
66019;HTU21D;52787;51.084;5.816;2022-11-04T02:08:14;11.48;83.74
66019;HTU21D;52787;51.084;5.816;2022-11-04T02:10:49;11.47;83.66
66019;HTU21D;52787;51.084;5.816;2022-11-04T02:13:18;11.49;83.67
66019;HTU21D;52787;51.084;5.816;2022-11-04T02:23:59;11.46;83.39
66019;HTU21D;52787;51.084;5.816;2022-11-04T02:26:54;11.45;83.24
66019;HTU21D;52787;51.084;5.816;2022-11-04T02:29:56;11.47;83.23
66019;HTU21D;52787;51.084;5.816;2022-11-04T02:39:11;11.51;83.07
66019;HTU21D;52787;51.084;5.816;2022-11-04T02:42:29;11.49;82.77
66019;HTU21D;52787;51.084;5.816;2022-11-04T02:45:21;11.46;82.75
66019;HTU21D;52787;51.084;5.816;2022-11-04T02:51:03;11.47;82.73
66019;HTU21D;52787;51.084;5.816;2022-11-04T02:53:43;11.53;82.59
66019;HTU21D;52787;51.084;5.816;2022-11-04T02:56:15;11.55;82.47
66019;HTU21D;52787;51.084;5.816;2022-11-04T02:58:54;11.58;82.29
66019;HTU21D;52787;51.084;5.816;2022-11-04T03:01:28;11.58;82.21
66019;HTU21D;52787;51.084;5.816;2022-11-04T03:04:20;11.59;81.94
66019;HTU21D;52787;51.084;5.816;2022-11-04T03:06:51;11.59;81.90
66019;HTU21D;52787;51.084;5.816;2022-11-04T03:09:21;11.59;81.67
66019;HTU21D;52787;51.084;5.816;2022-11-04T03:11:54;11.59;81.55
66019;HTU21D;52787;51.084;5.816;2022-11-04T03:14:37;11.55;81.36
66019;HTU21D;52787;51.084;5.816;2022-11-04T03:17:16;11.46;81.95
66019;HTU21D;52787;51.084;5.816;2022-11-04T03:19:58;11.40;82.17
66019;HTU21D;52787;51.084;5.816;2022-11-04T03:22:28;11.33;82.42
66019;HTU21D;52787;51.084;5.816;2022-11-04T03:24:55;11.30;82.52
66019;HTU21D;52787;51.084;5.816;2022-11-04T03:27:30;11.26;82.57
66019;HTU21D;52787;51.084;5.816;2022-11-04T03:30:21;11.20;82.53
66019;HTU21D;52787;51.084;5.816;2022-11-04T03:33:21;11.14;82.83
66019;HTU21D;52787;51.084;5.816;2022-11-04T03:35:52;11.11;83.03
66019;HTU21D;52787;51.084;5.816;2022-11-04T03:38:20;11.09;83.05
66019;HTU21D;52787;51.084;5.816;2022-11-04T03:40:47;11.10;83.29
66019;HTU21D;52787;51.084;5.816;2022-11-04T03:43:18;11.15;82.85
66019;HTU21D;52787;51.084;5.816;2022-11-04T03:45:47;11.14;82.77
66019;HTU21D;52787;51.084;5.816;2022-11-04T03:48:13;11.14;82.68
66019;HTU21D;52787;51.084;5.816;2022-11-04T03:50:42;11.13;82.62
66019;HTU21D;52787;51.084;5.816;2022-11-04T03:53:21;11.10;82.66
66019;HTU21D;52787;51.084;5.816;2022-11-04T04:04:31;11.09;82.60
66019;HTU21D;52787;51.084;5.816;2022-11-04T04:07:06;11.08;82.39
66019;HTU21D;52787;51.084;5.816;2022-11-04T04:12:57;11.08;82.23
66019;HTU21D;52787;51.084;5.816;2022-11-04T04:15:24;11.08;82.19
66019;HTU21D;52787;51.084;5.816;2022-11-04T04:17:59;11.10;82.13
66019;HTU21D;52787;51.084;5.816;2022-11-04T04:20:31;11.13;82.12
66019;HTU21D;52787;51.084;5.816;2022-11-04T04:23:17;11.15;81.96
66019;HTU21D;52787;51.084;5.816;2022-11-04T04:26:08;11.22;81.48
66019;HTU21D;52787;51.084;5.816;2022-11-04T04:28:55;11.23;81.46
66019;HTU21D;52787;51.084;5.816;2022-11-04T04:31:24;11.25;81.23
66019;HTU21D;52787;51.084;5.816;2022-11-04T04:34:10;11.28;81.14
66019;HTU21D;52787;51.084;5.816;2022-11-04T04:36:45;11.28;81.00
66019;HTU21D;52787;51.084;5.816;2022-11-04T04:39:18;11.29;80.93
66019;HTU21D;52787;51.084;5.816;2022-11-04T04:42:06;11.30;80.72
66019;HTU21D;52787;51.084;5.816;2022-11-04T04:44:51;11.30;80.52
66019;HTU21D;52787;51.084;5.816;2022-11-04T04:47:46;11.27;80.62
66019;HTU21D;52787;51.084;5.816;2022-11-04T04:50:18;11.27;80.25
66019;HTU21D;52787;51.084;5.816;2022-11-04T04:52:50;11.23;80.49
66019;HTU21D;52787;51.084;5.816;2022-11-04T04:55:17;11.19;80.56
66019;HTU21D;52787;51.084;5.816;2022-11-04T04:57:43;11.17;80.62
66019;HTU21D;52787;51.084;5.816;2022-11-04T05:00:13;11.11;80.89
66019;HTU21D;52787;51.084;5.816;2022-11-04T05:02:41;11.07;81.02
66019;HTU21D;52787;51.084;5.816;2022-11-04T05:05:08;11.01;81.34
66019;HTU21D;52787;51.084;5.816;2022-11-04T05:07:34;11.02;81.45
66019;HTU21D;52787;51.084;5.816;2022-11-04T05:10:00;10.99;81.74
66019;HTU21D;52787;51.084;5.816;2022-11-04T05:12:26;10.98;81.91
66019;HTU21D;52787;51.084;5.816;2022-11-04T05:15:12;11.00;81.91
66019;HTU21D;52787;51.084;5.816;2022-11-04T05:17:37;11.02;82.04
66019;HTU21D;52787;51.084;5.816;2022-11-04T05:20:03;11.05;82.05
66019;HTU21D;52787;51.084;5.816;2022-11-04T05:22:29;11.10;81.95
66019;HTU21D;52787;51.084;5.816;2022-11-04T05:24:55;11.13;81.65
66019;HTU21D;52787;51.084;5.816;2022-11-04T05:27:21;11.15;81.53
66019;HTU21D;52787;51.084;5.816;2022-11-04T05:29:46;11.18;81.48
66019;HTU21D;52787;51.084;5.816;2022-11-04T05:32:12;11.19;81.62
66019;HTU21D;52787;51.084;5.816;2022-11-04T05:34:38;11.20;81.44
66019;HTU21D;52787;51.084;5.816;2022-11-04T05:37:04;11.20;81.62
66019;HTU21D;52787;51.084;5.816;2022-11-04T05:39:29;11.24;81.69
66019;HTU21D;52787;51.084;5.816;2022-11-04T05:41:55;11.27;81.67
66019;HTU21D;52787;51.084;5.816;2022-11-04T05:44:21;11.31;81.86
66019;HTU21D;52787;51.084;5.816;2022-11-04T05:46:47;11.34;81.76
66019;HTU21D;52787;51.084;5.816;2022-11-04T05:49:13;11.36;81.97
66019;HTU21D;52787;51.084;5.816;2022-11-04T05:51:38;11.38;81.86
66019;HTU21D;52787;51.084;5.816;2022-11-04T05:54:04;11.41;81.84
66019;HTU21D;52787;51.084;5.816;2022-11-04T05:56:30;11.45;81.90
66019;HTU21D;52787;51.084;5.816;2022-11-04T05:58:56;11.51;81.77
66019;HTU21D;52787;51.084;5.816;2022-11-04T06:03:58;11.60;81.44
66019;HTU21D;52787;51.084;5.816;2022-11-04T06:06:28;11.67;81.17
66019;HTU21D;52787;51.084;5.816;2022-11-04T06:08:55;11.70;80.70
66019;HTU21D;52787;51.084;5.816;2022-11-04T06:11:24;11.70;80.56
66019;HTU21D;52787;51.084;5.816;2022-11-04T06:13:53;11.69;80.61
66019;HTU21D;52787;51.084;5.816;2022-11-04T06:16:19;11.63;80.69
66019;HTU21D;52787;51.084;5.816;2022-11-04T06:18:45;11.64;81.01
66019;HTU21D;52787;51.084;5.816;2022-11-04T06:23:43;11.67;80.95
66019;HTU21D;52787;51.084;5.816;2022-11-04T06:26:11;11.68;80.99
66019;HTU21D;52787;51.084;5.816;2022-11-04T06:28:37;11.70;80.86
66019;HTU21D;52787;51.084;5.816;2022-11-04T06:31:06;11.72;81.07
66019;HTU21D;52787;51.084;5.816;2022-11-04T06:33:33;11.76;80.83
66019;HTU21D;52787;51.084;5.816;2022-11-04T06:36:01;11.81;80.85
66019;HTU21D;52787;51.084;5.816;2022-11-04T06:38:30;11.83;80.88
66019;HTU21D;52787;51.084;5.816;2022-11-04T06:40:57;11.86;80.83
66019;HTU21D;52787;51.084;5.816;2022-11-04T06:43:24;11.91;80.57
66019;HTU21D;52787;51.084;5.816;2022-11-04T06:45:54;11.93;80.62
66019;HTU21D;52787;51.084;5.816;2022-11-04T06:48:20;11.94;80.49
66019;HTU21D;52787;51.084;5.816;2022-11-04T06:50:46;11.93;80.49
66019;HTU21D;52787;51.084;5.816;2022-11-04T06:53:12;11.92;80.69
66019;HTU21D;52787;51.084;5.816;2022-11-04T06:55:38;11.97;80.84
66019;HTU21D;52787;51.084;5.816;2022-11-04T06:58:04;12.03;80.82
66019;HTU21D;52787;51.084;5.816;2022-11-04T07:00:30;12.07;80.59
66019;HTU21D;52787;51.084;5.816;2022-11-04T07:02:56;12.07;80.62
66019;HTU21D;52787;51.084;5.816;2022-11-04T07:05:22;12.11;80.52
66019;HTU21D;52787;51.084;5.816;2022-11-04T07:07:47;12.11;80.43
66019;HTU21D;52787;51.084;5.816;2022-11-04T07:10:13;12.10;80.38
66019;HTU21D;52787;51.084;5.816;2022-11-04T07:12:39;12.07;80.43
66019;HTU21D;52787;51.084;5.816;2022-11-04T07:15:05;12.08;80.67
66019;HTU21D;52787;51.084;5.816;2022-11-04T07:17:32;12.11;80.49
66019;HTU21D;52787;51.084;5.816;2022-11-04T07:19:58;12.12;80.56
66019;HTU21D;52787;51.084;5.816;2022-11-04T07:22:23;12.14;80.67
66019;HTU21D;52787;51.084;5.816;2022-11-04T07:24:49;12.21;80.53
66019;HTU21D;52787;51.084;5.816;2022-11-04T07:27:15;12.28;80.34
66019;HTU21D;52787;51.084;5.816;2022-11-04T07:29:40;12.33;80.27
66019;HTU21D;52787;51.084;5.816;2022-11-04T07:32:06;12.36;80.28
66019;HTU21D;52787;51.084;5.816;2022-11-04T07:34:32;12.41;80.22
66019;HTU21D;52787;51.084;5.816;2022-11-04T07:36:58;12.45;80.06
66019;HTU21D;52787;51.084;5.816;2022-11-04T07:39:23;12.51;79.94
66019;HTU21D;52787;51.084;5.816;2022-11-04T07:41:49;12.56;79.95
66019;HTU21D;52787;51.084;5.816;2022-11-04T07:44:15;12.60;79.87
66019;HTU21D;52787;51.084;5.816;2022-11-04T07:46:41;12.67;79.75
66019;HTU21D;52787;51.084;5.816;2022-11-04T07:49:06;12.76;79.66
66019;HTU21D;52787;51.084;5.816;2022-11-04T07:51:33;12.86;79.42
66019;HTU21D;52787;51.084;5.816;2022-11-04T07:53:59;12.91;79.13
66019;HTU21D;52787;51.084;5.816;2022-11-04T07:56:25;12.95;79.20
66019;HTU21D;52787;51.084;5.816;2022-11-04T07:58:52;13.01;79.10
66019;HTU21D;52787;51.084;5.816;2022-11-04T08:01:21;13.06;78.83
66019;HTU21D;52787;51.084;5.816;2022-11-04T08:03:48;13.09;78.51
66019;HTU21D;52787;51.084;5.816;2022-11-04T08:06:16;13.08;78.42
66019;HTU21D;52787;51.084;5.816;2022-11-04T08:08:44;13.09;78.37
66019;HTU21D;52787;51.084;5.816;2022-11-04T08:11:16;13.11;78.18
66019;HTU21D;52787;51.084;5.816;2022-11-04T08:13:45;13.12;78.21
66019;HTU21D;52787;51.084;5.816;2022-11-04T08:16:16;13.16;77.89
66019;HTU21D;52787;51.084;5.816;2022-11-04T08:18:44;13.12;77.70
66019;HTU21D;52787;51.084;5.816;2022-11-04T08:21:14;13.11;77.83
66019;HTU21D;52787;51.084;5.816;2022-11-04T08:23:40;13.15;77.97
66019;HTU21D;52787;51.084;5.816;2022-11-04T08:26:12;13.21;77.77
66019;HTU21D;52787;51.084;5.816;2022-11-04T08:28:40;13.25;77.56
66019;HTU21D;52787;51.084;5.816;2022-11-04T08:31:21;13.30;77.40
66019;HTU21D;52787;51.084;5.816;2022-11-04T08:33:50;13.36;77.53
66019;HTU21D;52787;51.084;5.816;2022-11-04T08:36:20;13.45;77.46
66019;HTU21D;52787;51.084;5.816;2022-11-04T08:38:51;13.55;77.09
66019;HTU21D;52787;51.084;5.816;2022-11-04T08:41:21;13.66;76.58
66019;HTU21D;52787;51.084;5.816;2022-11-04T08:43:49;13.73;76.18
66019;HTU21D;52787;51.084;5.816;2022-11-04T08:46:16;13.81;76.12
66019;HTU21D;52787;51.084;5.816;2022-11-04T08:48:43;13.91;76.06
66019;HTU21D;52787;51.084;5.816;2022-11-04T08:51:14;13.98;75.31
66019;HTU21D;52787;51.084;5.816;2022-11-04T08:53:42;14.07;74.55
66019;HTU21D;52787;51.084;5.816;2022-11-04T08:56:20;14.13;74.47
66019;HTU21D;52787;51.084;5.816;2022-11-04T08:58:47;14.21;74.64
66019;HTU21D;52787;51.084;5.816;2022-11-04T09:01:14;14.22;74.10
66019;HTU21D;52787;51.084;5.816;2022-11-04T09:03:41;14.24;74.14
66019;HTU21D;52787;51.084;5.816;2022-11-04T09:06:11;14.25;74.04
66019;HTU21D;52787;51.084;5.816;2022-11-04T09:08:39;14.26;74.23
66019;HTU21D;52787;51.084;5.816;2022-11-04T09:11:06;14.28;74.35
66019;HTU21D;52787;51.084;5.816;2022-11-04T09:13:33;14.27;74.25
66019;HTU21D;52787;51.084;5.816;2022-11-04T09:15:59;14.28;74.57
66019;HTU21D;52787;51.084;5.816;2022-11-04T09:18:24;14.28;74.27
66019;HTU21D;52787;51.084;5.816;2022-11-04T09:20:50;14.24;74.47
66019;HTU21D;52787;51.084;5.816;2022-11-04T09:23:16;14.19;74.79
66019;HTU21D;52787;51.084;5.816;2022-11-04T09:25:41;14.17;75.04
66019;HTU21D;52787;51.084;5.816;2022-11-04T09:28:07;14.14;75.20
66019;HTU21D;52787;51.084;5.816;2022-11-04T09:30:33;14.15;75.22
66019;HTU21D;52787;51.084;5.816;2022-11-04T09:32:59;14.11;75.25
66019;HTU21D;52787;51.084;5.816;2022-11-04T09:35:25;14.18;75.47
66019;HTU21D;52787;51.084;5.816;2022-11-04T09:37:52;14.25;75.38
66019;HTU21D;52787;51.084;5.816;2022-11-04T09:40:21;14.33;75.06
66019;HTU21D;52787;51.084;5.816;2022-11-04T09:45:28;14.39;74.44
66019;HTU21D;52787;51.084;5.816;2022-11-04T09:48:03;14.41;74.73
66019;HTU21D;52787;51.084;5.816;2022-11-04T09:50:47;14.42;74.40
66019;HTU21D;52787;51.084;5.816;2022-11-04T09:55:59;14.45;74.25
66019;HTU21D;52787;51.084;5.816;2022-11-04T09:58:35;14.59;74.38
66019;HTU21D;52787;51.084;5.816;2022-11-04T10:09:32;15.92;69.15
66019;HTU21D;52787;51.084;5.816;2022-11-04T10:24:56;15.69;70.32
66019;HTU21D;52787;51.084;5.816;2022-11-04T10:27:02;15.84;69.86
66019;HTU21D;52787;51.084;5.816;2022-11-04T10:29:58;15.98;69.55
66019;HTU21D;52787;51.084;5.816;2022-11-04T10:32:37;16.04;69.17
66019;HTU21D;52787;51.084;5.816;2022-11-04T10:35:25;16.28;69.26
66019;HTU21D;52787;51.084;5.816;2022-11-04T10:37:54;16.91;67.68
66019;HTU21D;52787;51.084;5.816;2022-11-04T10:40:24;17.48;66.26
66019;HTU21D;52787;51.084;5.816;2022-11-04T10:42:57;18.06;64.52
66019;HTU21D;52787;51.084;5.816;2022-11-04T10:46:29;18.77;62.05
66019;HTU21D;52787;51.084;5.816;2022-11-04T10:48:50;19.01;59.48
66019;HTU21D;52787;51.084;5.816;2022-11-04T10:51:22;18.44;59.89
66019;HTU21D;52787;51.084;5.816;2022-11-04T10:53:59;17.62;62.39
66019;HTU21D;52787;51.084;5.816;2022-11-04T10:56:34;17.01;64.27
66019;HTU21D;52787;51.084;5.816;2022-11-04T11:01:52;15.97;66.94
66019;HTU21D;52787;51.084;5.816;2022-11-04T11:04:33;15.58;68.20
66019;HTU21D;52787;51.084;5.816;2022-11-04T11:07:06;15.28;69.29
66019;HTU21D;52787;51.084;5.816;2022-11-04T11:14:39;14.99;70.76
66019;HTU21D;52787;51.084;5.816;2022-11-04T11:17:16;14.97;71.16
66019;HTU21D;52787;51.084;5.816;2022-11-04T11:19:56;14.97;71.24
66019;HTU21D;52787;51.084;5.816;2022-11-04T11:28:05;14.95;71.95
66019;HTU21D;52787;51.084;5.816;2022-11-04T11:30:56;15.09;72.05
66019;HTU21D;52787;51.084;5.816;2022-11-04T11:36:23;15.48;70.64
66019;HTU21D;52787;51.084;5.816;2022-11-04T11:41:27;15.40;71.35
66019;HTU21D;52787;51.084;5.816;2022-11-04T11:44:00;15.36;72.06
66019;HTU21D;52787;51.084;5.816;2022-11-04T11:46:32;15.29;72.23
66019;HTU21D;52787;51.084;5.816;2022-11-04T11:49:02;15.25;72.41
66019;HTU21D;52787;51.084;5.816;2022-11-04T11:51:38;15.22;72.02
66019;HTU21D;52787;51.084;5.816;2022-11-04T11:54:15;15.14;72.57
66019;HTU21D;52787;51.084;5.816;2022-11-04T11:56:52;15.25;72.84
66019;HTU21D;52787;51.084;5.816;2022-11-04T11:59:31;15.46;72.27
66019;HTU21D;52787;51.084;5.816;2022-11-04T12:05:12;15.88;71.14
66019;HTU21D;52787;51.084;5.816;2022-11-04T12:08:03;16.33;69.79
66019;HTU21D;52787;51.084;5.816;2022-11-04T12:18:59;18.27;62.65
66019;HTU21D;52787;51.084;5.816;2022-11-04T12:21:38;17.80;63.43
66019;HTU21D;52787;51.084;5.816;2022-11-04T12:27:14;16.91;67.14
66019;HTU21D;52787;51.084;5.816;2022-11-04T12:30:04;16.79;68.02
66019;HTU21D;52787;51.084;5.816;2022-11-04T12:38:46;16.72;68.24
66019;HTU21D;52787;51.084;5.816;2022-11-04T12:44:21;16.65;68.40
66019;HTU21D;52787;51.084;5.816;2022-11-04T12:47:28;16.73;67.78
66019;HTU21D;52787;51.084;5.816;2022-11-04T12:58:37;16.50;69.08
66019;HTU21D;52787;51.084;5.816;2022-11-04T13:02:09;16.50;68.85
66019;HTU21D;52787;51.084;5.816;2022-11-04T13:04:19;16.40;68.10
66019;HTU21D;52787;51.084;5.816;2022-11-04T13:07:09;16.29;68.59
66019;HTU21D;52787;51.084;5.816;2022-11-04T13:10:03;16.43;68.95
66019;HTU21D;52787;51.084;5.816;2022-11-04T13:12:39;16.62;68.64
66019;HTU21D;52787;51.084;5.816;2022-11-04T13:15:16;16.63;67.88
66019;HTU21D;52787;51.084;5.816;2022-11-04T13:17:46;16.49;67.73
66019;HTU21D;52787;51.084;5.816;2022-11-04T13:20:46;16.31;68.41
66019;HTU21D;52787;51.084;5.816;2022-11-04T13:23:29;16.17;68.71
66019;HTU21D;52787;51.084;5.816;2022-11-04T13:26:17;16.02;68.92
66019;HTU21D;52787;51.084;5.816;2022-11-04T13:28:55;15.86;69.23
66019;HTU21D;52787;51.084;5.816;2022-11-04T13:31:58;15.72;69.87
66019;HTU21D;52787;51.084;5.816;2022-11-04T13:37:55;15.66;70.49
66019;HTU21D;52787;51.084;5.816;2022-11-04T13:40:41;15.65;70.57
66019;HTU21D;52787;51.084;5.816;2022-11-04T13:43:25;15.57;70.74
66019;HTU21D;52787;51.084;5.816;2022-11-04T13:48:57;15.55;71.11
66019;HTU21D;52787;51.084;5.816;2022-11-04T13:52:01;15.63;71.33
66019;HTU21D;52787;51.084;5.816;2022-11-04T13:57:14;15.87;70.56
66019;HTU21D;52787;51.084;5.816;2022-11-04T14:02:49;16.05;70.02
66019;HTU21D;52787;51.084;5.816;2022-11-04T14:08:15;15.98;69.81
66019;HTU21D;52787;51.084;5.816;2022-11-04T14:16:05;15.67;71.57
66019;HTU21D;52787;51.084;5.816;2022-11-04T14:18:57;15.57;71.93
66019;HTU21D;52787;51.084;5.816;2022-11-04T14:22:14;15.51;72.50
66019;HTU21D;52787;51.084;5.816;2022-11-04T14:24:42;15.47;72.66
66019;HTU21D;52787;51.084;5.816;2022-11-04T14:27:30;15.44;72.58
66019;HTU21D;52787;51.084;5.816;2022-11-04T14:30:01;15.33;72.67
66019;HTU21D;52787;51.084;5.816;2022-11-04T14:32:35;15.27;72.88
66019;HTU21D;52787;51.084;5.816;2022-11-04T14:35:07;15.25;73.36
66019;HTU21D;52787;51.084;5.816;2022-11-04T14:37:42;15.29;73.41
66019;HTU21D;52787;51.084;5.816;2022-11-04T14:40:27;15.29;73.41
66019;HTU21D;52787;51.084;5.816;2022-11-04T14:42:55;15.29;73.62
66019;HTU21D;52787;51.084;5.816;2022-11-04T14:45:36;15.28;73.78
66019;HTU21D;52787;51.084;5.816;2022-11-04T14:48:16;15.18;74.33
66019;HTU21D;52787;51.084;5.816;2022-11-04T14:50:49;15.15;74.69
66019;HTU21D;52787;51.084;5.816;2022-11-04T14:53:28;15.13;74.91
66019;HTU21D;52787;51.084;5.816;2022-11-04T14:56:16;15.09;74.80
66019;HTU21D;52787;51.084;5.816;2022-11-04T14:58:58;14.99;75.64
66019;HTU21D;52787;51.084;5.816;2022-11-04T15:01:30;14.98;75.61
66019;HTU21D;52787;51.084;5.816;2022-11-04T15:04:12;14.99;75.72
66019;HTU21D;52787;51.084;5.816;2022-11-04T15:06:39;14.95;75.76
66019;HTU21D;52787;51.084;5.816;2022-11-04T15:09:21;14.91;76.10
66019;HTU21D;52787;51.084;5.816;2022-11-04T15:12:08;14.88;76.54
66019;HTU21D;52787;51.084;5.816;2022-11-04T15:14:56;14.86;76.62
66019;HTU21D;52787;51.084;5.816;2022-11-04T15:17:27;14.81;76.39
66019;HTU21D;52787;51.084;5.816;2022-11-04T15:19:58;14.72;76.70
66019;HTU21D;52787;51.084;5.816;2022-11-04T15:22:26;14.65;76.95
66019;HTU21D;52787;51.084;5.816;2022-11-04T15:24:52;14.57;77.27
66019;HTU21D;52787;51.084;5.816;2022-11-04T15:27:27;14.53;77.52
66019;HTU21D;52787;51.084;5.816;2022-11-04T15:29:55;14.53;77.48
66019;HTU21D;52787;51.084;5.816;2022-11-04T15:32:26;14.53;77.30
66019;HTU21D;52787;51.084;5.816;2022-11-04T15:34:53;14.54;76.79
66019;HTU21D;52787;51.084;5.816;2022-11-04T15:37:22;14.53;76.62
66019;HTU21D;52787;51.084;5.816;2022-11-04T15:39:51;14.53;76.15
66019;HTU21D;52787;51.084;5.816;2022-11-04T15:42:28;14.53;75.90
66019;HTU21D;52787;51.084;5.816;2022-11-04T15:45:28;14.55;75.64
66019;HTU21D;52787;51.084;5.816;2022-11-04T15:48:30;14.56;75.61
66019;HTU21D;52787;51.084;5.816;2022-11-04T15:51:12;14.60;75.59
66019;HTU21D;52787;51.084;5.816;2022-11-04T15:53:53;14.63;75.61
66019;HTU21D;52787;51.084;5.816;2022-11-04T15:56:27;14.54;75.83
66019;HTU21D;52787;51.084;5.816;2022-11-04T15:58:56;14.45;76.02
66019;HTU21D;52787;51.084;5.816;2022-11-04T16:01:23;14.40;76.61
66019;HTU21D;52787;51.084;5.816;2022-11-04T16:03:54;14.39;76.81
66019;HTU21D;52787;51.084;5.816;2022-11-04T16:06:42;14.34;77.02
66019;HTU21D;52787;51.084;5.816;2022-11-04T16:11:36;14.22;77.66
66019;HTU21D;52787;51.084;5.816;2022-11-04T16:14:24;14.21;77.83
66019;HTU21D;52787;51.084;5.816;2022-11-04T16:16:53;14.19;77.97
66019;HTU21D;52787;51.084;5.816;2022-11-04T16:19:23;14.18;77.95
66019;HTU21D;52787;51.084;5.816;2022-11-04T16:22:03;14.17;78.19
66019;HTU21D;52787;51.084;5.816;2022-11-04T16:24:37;14.15;78.30
66019;HTU21D;52787;51.084;5.816;2022-11-04T16:27:08;14.15;78.17
66019;HTU21D;52787;51.084;5.816;2022-11-04T16:29:37;14.15;78.24
66019;HTU21D;52787;51.084;5.816;2022-11-04T16:32:27;14.15;78.21
66019;HTU21D;52787;51.084;5.816;2022-11-04T16:35:00;14.13;78.34
66019;HTU21D;52787;51.084;5.816;2022-11-04T16:37:29;14.12;78.11
66019;HTU21D;52787;51.084;5.816;2022-11-04T16:39:56;14.08;78.47
66019;HTU21D;52787;51.084;5.816;2022-11-04T16:42:23;14.06;78.54
66019;HTU21D;52787;51.084;5.816;2022-11-04T16:44:51;14.05;78.64
66019;HTU21D;52787;51.084;5.816;2022-11-04T16:47:21;14.06;78.56
66019;HTU21D;52787;51.084;5.816;2022-11-04T16:49:47;14.06;78.60
66019;HTU21D;52787;51.084;5.816;2022-11-04T16:52:16;14.08;78.56
66019;HTU21D;52787;51.084;5.816;2022-11-04T16:54:48;14.06;78.47
66019;HTU21D;52787;51.084;5.816;2022-11-04T16:57:14;13.98;78.64
66019;HTU21D;52787;51.084;5.816;2022-11-04T16:59:40;13.93;78.86
66019;HTU21D;52787;51.084;5.816;2022-11-04T17:02:30;13.93;78.96
66019;HTU21D;52787;51.084;5.816;2022-11-04T17:05:06;13.92;78.99
66019;HTU21D;52787;51.084;5.816;2022-11-04T17:07:36;13.93;78.95
66019;HTU21D;52787;51.084;5.816;2022-11-04T17:10:04;13.95;78.87
66019;HTU21D;52787;51.084;5.816;2022-11-04T17:12:37;13.92;78.87
66019;HTU21D;52787;51.084;5.816;2022-11-04T17:15:03;13.93;78.73
66019;HTU21D;52787;51.084;5.816;2022-11-04T17:17:29;13.90;78.72
66019;HTU21D;52787;51.084;5.816;2022-11-04T17:19:54;13.90;78.78
66019;HTU21D;52787;51.084;5.816;2022-11-04T17:22:20;13.92;78.79
66019;HTU21D;52787;51.084;5.816;2022-11-04T17:24:46;13.95;78.59
66019;HTU21D;52787;51.084;5.816;2022-11-04T17:27:12;13.96;78.32
66019;HTU21D;52787;51.084;5.816;2022-11-04T17:29:37;13.95;78.21
66019;HTU21D;52787;51.084;5.816;2022-11-04T17:32:04;13.94;78.04
66019;HTU21D;52787;51.084;5.816;2022-11-04T17:34:30;13.92;77.79
66019;HTU21D;52787;51.084;5.816;2022-11-04T17:36:56;13.86;77.78
66019;HTU21D;52787;51.084;5.816;2022-11-04T17:39:21;13.82;77.75
66019;HTU21D;52787;51.084;5.816;2022-11-04T17:41:47;13.83;77.60
66019;HTU21D;52787;51.084;5.816;2022-11-04T17:44:32;13.77;77.63
66019;HTU21D;52787;51.084;5.816;2022-11-04T17:46:58;13.76;77.55
66019;HTU21D;52787;51.084;5.816;2022-11-04T17:49:26;13.76;77.34
66019;HTU21D;52787;51.084;5.816;2022-11-04T17:51:55;13.73;77.21
66019;HTU21D;52787;51.084;5.816;2022-11-04T17:54:23;13.67;77.32
66019;HTU21D;52787;51.084;5.816;2022-11-04T17:56:51;13.59;77.57
66019;HTU21D;52787;51.084;5.816;2022-11-04T17:59:17;13.52;77.92
66019;HTU21D;52787;51.084;5.816;2022-11-04T18:01:43;13.44;78.06
66019;HTU21D;52787;51.084;5.816;2022-11-04T18:04:14;13.36;78.25
66019;HTU21D;52787;51.084;5.816;2022-11-04T18:06:44;13.31;78.40
66019;HTU21D;52787;51.084;5.816;2022-11-04T18:09:11;13.25;78.21